sensor_id;sensor_type;location;lat;lon;timestamp;pressure;altitude;pressure_sealevel;temperature;humidity
6938;BME280;40040;42.706;23.372;2023-01-20T00:00:19;146302.56;;;8.63;100.00
6938;BME280;40040;42.706;23.372;2023-01-20T00:02:46;146318.56;;;8.69;100.00
6938;BME280;40040;42.706;23.372;2023-01-20T00:05:13;146329.63;;;8.74;100.00
6938;BME280;40040;42.706;23.372;2023-01-20T00:07:41;146328.44;;;8.73;100.00
6938;BME280;40040;42.706;23.372;2023-01-20T00:10:09;146296.38;;;8.60;100.00
6938;BME280;40040;42.706;23.372;2023-01-20T00:12:36;146284.06;;;8.55;100.00
6938;BME280;40040;42.706;23.372;2023-01-20T00:15:04;146321.00;;;8.70;100.00
6938;BME280;40040;42.706;23.372;2023-01-20T00:17:31;146335.81;;;8.76;100.00
6938;BME280;40040;42.706;23.372;2023-01-20T00:19:58;146335.81;;;8.76;100.00
6938;BME280;40040;42.706;23.372;2023-01-20T00:22:24;146305.00;;;8.64;100.00
6938;BME280;40040;42.706;23.372;2023-01-20T00:24:53;146293.94;;;8.59;100.00
6938;BME280;40040;42.706;23.372;2023-01-20T00:27:20;146244.66;;;8.39;100.00
6938;BME280;40040;42.706;23.372;2023-01-20T00:29:47;146173.19;;;8.10;100.00
6938;BME280;40040;42.706;23.372;2023-01-20T00:32:14;146141.16;;;7.97;100.00
6938;BME280;40040;42.706;23.372;2023-01-20T00:34:40;146084.56;;;7.74;100.00
6938;BME280;40040;42.706;23.372;2023-01-20T00:37:07;146100.53;;;7.80;100.00
6938;BME280;40040;42.706;23.372;2023-01-20T00:39:34;146084.56;;;7.74;100.00
6938;BME280;40040;42.706;23.372;2023-01-20T00:42:02;146085.75;;;7.74;100.00
6938;BME280;40040;42.706;23.372;2023-01-20T00:44:29;146096.84;;;7.79;100.00
6938;BME280;40040;42.706;23.372;2023-01-20T00:46:56;146106.69;;;7.83;100.00
6938;BME280;40040;42.706;23.372;2023-01-20T00:49:23;146111.59;;;7.85;100.00
6938;BME280;40040;42.706;23.372;2023-01-20T00:51:49;146122.72;;;7.89;100.00
6938;BME280;40040;42.706;23.372;2023-01-20T00:54:16;146122.72;;;7.89;100.00
6938;BME280;40040;42.706;23.372;2023-01-20T00:56:43;146133.78;;;7.94;100.00
6938;BME280;40040;42.706;23.372;2023-01-20T00:59:12;146121.47;;;7.89;100.00
6938;BME280;40040;42.706;23.372;2023-01-20T01:01:38;146131.34;;;7.93;100.00
6938;BME280;40040;42.706;23.372;2023-01-20T01:04:05;146127.59;;;7.91;100.00
6938;BME280;40040;42.706;23.372;2023-01-20T01:06:32;146116.53;;;7.87;100.00
6938;BME280;40040;42.706;23.372;2023-01-20T01:08:59;146133.78;;;7.94;100.00
6938;BME280;40040;42.706;23.372;2023-01-20T01:11:26;146135.03;;;7.94;100.00
6938;BME280;40040;42.706;23.372;2023-01-20T01:13:54;146155.94;;;8.03;100.00
6938;BME280;40040;42.706;23.372;2023-01-20T01:16:23;146165.81;;;8.07;100.00
6938;BME280;40040;42.706;23.372;2023-01-20T01:18:51;146146.06;;;7.99;100.00
6938;BME280;40040;42.706;23.372;2023-01-20T01:21:19;146125.16;;;7.90;100.00
6938;BME280;40040;42.706;23.372;2023-01-20T01:23:46;146205.19;;;8.23;100.00
6938;BME280;40040;42.706;23.372;2023-01-20T01:26:13;146210.16;;;8.25;100.00
6938;BME280;40040;42.706;23.372;2023-01-20T01:28:40;146175.63;;;8.11;100.00
6938;BME280;40040;42.706;23.372;2023-01-20T01:31:07;146184.25;;;8.15;100.00
6938;BME280;40040;42.706;23.372;2023-01-20T01:33:36;146205.19;;;8.23;100.00
6938;BME280;40040;42.706;23.372;2023-01-20T01:36:04;146199.03;;;8.21;100.00
6938;BME280;40040;42.706;23.372;2023-01-20T01:38:33;146203.97;;;8.23;100.00
6938;BME280;40040;42.706;23.372;2023-01-20T01:41:00;146212.66;;;8.26;100.00
6938;BME280;40040;42.706;23.372;2023-01-20T01:43:28;146223.72;;;8.31;100.00
6938;BME280;40040;42.706;23.372;2023-01-20T01:45:55;146224.97;;;8.31;100.00
6938;BME280;40040;42.706;23.372;2023-01-20T01:48:24;146229.88;;;8.33;100.00
6938;BME280;40040;42.706;23.372;2023-01-20T01:50:57;146141.16;;;7.97;100.00
6938;BME280;40040;42.706;23.372;2023-01-20T01:53:28;146195.34;;;8.19;100.00
6938;BME280;40040;42.706;23.372;2023-01-20T01:55:57;146170.69;;;8.09;100.00
6938;BME280;40040;42.706;23.372;2023-01-20T01:58:31;146142.38;;;7.97;100.00
6938;BME280;40040;42.706;23.372;2023-01-20T02:00:59;146040.22;;;7.56;100.00
6938;BME280;40040;42.706;23.372;2023-01-20T02:03:32;146091.94;;;7.77;100.00
6938;BME280;40040;42.706;23.372;2023-01-20T02:06:04;146084.56;;;7.74;100.00
6938;BME280;40040;42.706;23.372;2023-01-20T02:08:33;146062.41;;;7.65;100.00
6938;BME280;40040;42.706;23.372;2023-01-20T02:11:00;146046.34;;;7.58;100.00
6938;BME280;40040;42.706;23.372;2023-01-20T02:13:27;146042.66;;;7.57;100.00
6938;BME280;40040;42.706;23.372;2023-01-20T02:15:59;146032.84;;;7.53;100.00
6938;BME280;40040;42.706;23.372;2023-01-20T02:18:37;146018.06;;;7.47;100.00
6938;BME280;40040;42.706;23.372;2023-01-20T02:21:59;146010.69;;;7.44;100.00
6938;BME280;40040;42.706;23.372;2023-01-20T02:30:47;146023.00;;;7.49;100.00
6938;BME280;40040;42.706;23.372;2023-01-20T02:33:27;146035.28;;;7.54;100.00
6938;BME280;40040;42.706;23.372;2023-01-20T02:36:01;146037.78;;;7.55;100.00
6938;BME280;40040;42.706;23.372;2023-01-20T02:38:34;146043.91;;;7.57;100.00
6938;BME280;40040;42.706;23.372;2023-01-20T02:41:09;146051.28;;;7.60;100.00
6938;BME280;40040;42.706;23.372;2023-01-20T02:43:44;146056.22;;;7.62;100.00
6938;BME280;40040;42.706;23.372;2023-01-20T02:46:19;146054.97;;;7.62;100.00
6938;BME280;40040;42.706;23.372;2023-01-20T02:48:52;146079.63;;;7.72;100.00
6938;BME280;40040;42.706;23.372;2023-01-20T02:51:24;146089.44;;;7.76;100.00
6938;BME280;40040;42.706;23.372;2023-01-20T02:53:55;146104.22;;;7.82;100.00
6938;BME280;40040;42.706;23.372;2023-01-20T02:56:26;146118.97;;;7.88;100.00
6938;BME280;40040;42.706;23.372;2023-01-20T02:58:56;146123.91;;;7.90;100.00
6938;BME280;40040;42.706;23.372;2023-01-20T03:01:29;146135.03;;;7.94;100.00
6938;BME280;40040;42.706;23.372;2023-01-20T03:04:00;146137.47;;;7.95;100.00
6938;BME280;40040;42.706;23.372;2023-01-20T03:06:31;146131.34;;;7.93;100.00
6938;BME280;40040;42.706;23.372;2023-01-20T03:09:01;146126.41;;;7.91;100.00
6938;BME280;40040;42.706;23.372;2023-01-20T03:11:34;146106.69;;;7.83;100.00
6938;BME280;40040;42.706;23.372;2023-01-20T03:14:06;146106.69;;;7.83;100.00
6938;BME280;40040;42.706;23.372;2023-01-20T03:16:33;146110.41;;;7.84;100.00
6938;BME280;40040;42.706;23.372;2023-01-20T03:19:02;146107.91;;;7.83;100.00
6938;BME280;40040;42.706;23.372;2023-01-20T03:21:29;146109.16;;;7.84;100.00
6938;BME280;40040;42.706;23.372;2023-01-20T03:23:59;146105.47;;;7.82;100.00
6938;BME280;40040;42.706;23.372;2023-01-20T03:26:26;146109.16;;;7.84;100.00
6938;BME280;40040;42.706;23.372;2023-01-20T03:28:55;146101.78;;;7.81;100.00
6938;BME280;40040;42.706;23.372;2023-01-20T03:31:25;146089.44;;;7.76;100.00
6938;BME280;40040;42.706;23.372;2023-01-20T03:33:54;146090.69;;;7.76;100.00
6938;BME280;40040;42.706;23.372;2023-01-20T03:36:25;146104.22;;;7.82;100.00
6938;BME280;40040;42.706;23.372;2023-01-20T03:38:54;146084.56;;;7.74;100.00
6938;BME280;40040;42.706;23.372;2023-01-20T03:41:29;146122.72;;;7.89;100.00
6938;BME280;40040;42.706;23.372;2023-01-20T03:44:08;146128.84;;;7.92;100.00
6938;BME280;40040;42.706;23.372;2023-01-20T03:46:41;146131.34;;;7.93;100.00
6938;BME280;40040;42.706;23.372;2023-01-20T03:49:16;146127.59;;;7.91;100.00
6938;BME280;40040;42.706;23.372;2023-01-20T03:51:57;146132.53;;;7.93;100.00
6938;BME280;40040;42.706;23.372;2023-01-20T03:54:27;146042.66;;;7.57;100.00
6938;BME280;40040;42.706;23.372;2023-01-20T03:56:59;146084.56;;;7.74;100.00
6938;BME280;40040;42.706;23.372;2023-01-20T03:59:29;146052.53;;;7.61;100.00
6938;BME280;40040;42.706;23.372;2023-01-20T04:02:00;146041.47;;;7.56;100.00
6938;BME280;40040;42.706;23.372;2023-01-20T04:04:28;146067.31;;;7.67;100.00
6938;BME280;40040;42.706;23.372;2023-01-20T04:07:00;146030.38;;;7.52;100.00
6938;BME280;40040;42.706;23.372;2023-01-20T04:09:31;146066.06;;;7.66;100.00
6938;BME280;40040;42.706;23.372;2023-01-20T04:12:00;146066.06;;;7.66;100.00
6938;BME280;40040;42.706;23.372;2023-01-20T04:14:27;146054.97;;;7.62;100.00
6938;BME280;40040;42.706;23.372;2023-01-20T04:16:55;146043.91;;;7.57;100.00
6938;BME280;40040;42.706;23.372;2023-01-20T04:19:24;146050.09;;;7.60;100.00
6938;BME280;40040;42.706;23.372;2023-01-20T04:21:54;146045.16;;;7.58;100.00
6938;BME280;40040;42.706;23.372;2023-01-20T04:24:29;146032.84;;;7.53;100.00
6938;BME280;40040;42.706;23.372;2023-01-20T04:26:57;145971.31;;;7.28;100.00
6938;BME280;40040;42.706;23.372;2023-01-20T04:29:24;146046.34;;;7.58;100.00
6938;BME280;40040;42.706;23.372;2023-01-20T04:31:57;145995.91;;;7.38;100.00
6938;BME280;40040;42.706;23.372;2023-01-20T04:34:24;146042.66;;;7.57;100.00
6938;BME280;40040;42.706;23.372;2023-01-20T04:36:50;146059.91;;;7.64;100.00
6938;BME280;40040;42.706;23.372;2023-01-20T04:39:17;146073.44;;;7.69;100.00
6938;BME280;40040;42.706;23.372;2023-01-20T04:41:46;146079.63;;;7.72;100.00
6938;BME280;40040;42.706;23.372;2023-01-20T04:44:13;146066.06;;;7.66;100.00
6938;BME280;40040;42.706;23.372;2023-01-20T04:46:40;146088.25;;;7.75;100.00
6938;BME280;40040;42.706;23.372;2023-01-20T04:49:07;146109.16;;;7.84;100.00
6938;BME280;40040;42.706;23.372;2023-01-20T04:51:34;146122.72;;;7.89;100.00
6938;BME280;40040;42.706;23.372;2023-01-20T04:54:01;146144.84;;;7.98;100.00
6938;BME280;40040;42.706;23.372;2023-01-20T04:56:28;146116.53;;;7.87;100.00
6938;BME280;40040;42.706;23.372;2023-01-20T04:58:56;146114.09;;;7.86;100.00
6938;BME280;40040;42.706;23.372;2023-01-20T05:01:23;146123.91;;;7.90;100.00
6938;BME280;40040;42.706;23.372;2023-01-20T05:03:50;146159.63;;;8.05;100.00
6938;BME280;40040;42.706;23.372;2023-01-20T05:06:17;146158.38;;;8.04;100.00
6938;BME280;40040;42.706;23.372;2023-01-20T05:08:44;146143.63;;;7.98;100.00
6938;BME280;40040;42.706;23.372;2023-01-20T05:11:11;146094.38;;;7.78;100.00
6938;BME280;40040;42.706;23.372;2023-01-20T05:13:38;146127.59;;;7.91;100.00
6938;BME280;40040;42.706;23.372;2023-01-20T05:16:08;146187.94;;;8.16;100.00
6938;BME280;40040;42.706;23.372;2023-01-20T05:18:35;146200.25;;;8.21;100.00
6938;BME280;40040;42.706;23.372;2023-01-20T05:21:03;146197.81;;;8.20;100.00
6938;BME280;40040;42.706;23.372;2023-01-20T05:23:30;146223.72;;;8.31;100.00
6938;BME280;40040;42.706;23.372;2023-01-20T05:25:57;146234.78;;;8.35;100.00
6938;BME280;40040;42.706;23.372;2023-01-20T05:28:24;146213.84;;;8.27;100.00
6938;BME280;40040;42.706;23.372;2023-01-20T05:30:51;146217.53;;;8.28;100.00
6938;BME280;40040;42.706;23.372;2023-01-20T05:33:19;146254.50;;;8.43;100.00
6938;BME280;40040;42.706;23.372;2023-01-20T05:35:46;146260.63;;;8.46;100.00
6938;BME280;40040;42.706;23.372;2023-01-20T05:38:13;146239.72;;;8.37;100.00
6938;BME280;40040;42.706;23.372;2023-01-20T05:40:40;146227.41;;;8.32;100.00
6938;BME280;40040;42.706;23.372;2023-01-20T05:43:07;146213.84;;;8.27;100.00
6938;BME280;40040;42.706;23.372;2023-01-20T05:45:34;146280.38;;;8.54;100.00
6938;BME280;40040;42.706;23.372;2023-01-20T05:48:01;146289.00;;;8.57;100.00
6938;BME280;40040;42.706;23.372;2023-01-20T05:50:30;146265.56;;;8.48;100.00
6938;BME280;40040;42.706;23.372;2023-01-20T05:52:57;146264.31;;;8.47;100.00
6938;BME280;40040;42.706;23.372;2023-01-20T05:55:24;146224.97;;;8.31;100.00
6938;BME280;40040;42.706;23.372;2023-01-20T05:57:51;146264.31;;;8.47;100.00
6938;BME280;40040;42.706;23.372;2023-01-20T06:00:19;146252.03;;;8.42;100.00
6938;BME280;40040;42.706;23.372;2023-01-20T06:02:46;146272.94;;;8.51;100.00
6938;BME280;40040;42.706;23.372;2023-01-20T06:05:12;146292.69;;;8.59;100.00
6938;BME280;40040;42.706;23.372;2023-01-20T06:07:41;146291.44;;;8.58;100.00
6938;BME280;40040;42.706;23.372;2023-01-20T06:10:08;146289.00;;;8.57;100.00
6938;BME280;40040;42.706;23.372;2023-01-20T06:12:36;146289.00;;;8.57;100.00
6938;BME280;40040;42.706;23.372;2023-01-20T06:15:04;146222.47;;;8.30;100.00
6938;BME280;40040;42.706;23.372;2023-01-20T06:17:31;146289.00;;;8.57;100.00
6938;BME280;40040;42.706;23.372;2023-01-20T06:19:58;146276.69;;;8.52;100.00
6938;BME280;40040;42.706;23.372;2023-01-20T06:22:25;146256.94;;;8.44;100.00
6938;BME280;40040;42.706;23.372;2023-01-20T06:24:54;146266.81;;;8.48;100.00
6938;BME280;40040;42.706;23.372;2023-01-20T06:27:20;146287.75;;;8.57;100.00
6938;BME280;40040;42.706;23.372;2023-01-20T06:29:47;146293.94;;;8.59;100.00
6938;BME280;40040;42.706;23.372;2023-01-20T06:32:15;146269.25;;;8.49;100.00
6938;BME280;40040;42.706;23.372;2023-01-20T06:34:42;146293.94;;;8.59;100.00
6938;BME280;40040;42.706;23.372;2023-01-20T06:37:09;146205.19;;;8.23;100.00
6938;BME280;40040;42.706;23.372;2023-01-20T06:39:35;146266.81;;;8.48;100.00
6938;BME280;40040;42.706;23.372;2023-01-20T06:42:04;146243.41;;;8.39;100.00
6938;BME280;40040;42.706;23.372;2023-01-20T06:44:31;146202.72;;;8.22;100.00
6938;BME280;40040;42.706;23.372;2023-01-20T06:46:59;146146.06;;;7.99;100.00
6938;BME280;40040;42.706;23.372;2023-01-20T06:49:26;146126.41;;;7.91;100.00
6938;BME280;40040;42.706;23.372;2023-01-20T06:51:53;146109.16;;;7.84;100.00
6938;BME280;40040;42.706;23.372;2023-01-20T06:54:20;146111.59;;;7.85;100.00
6938;BME280;40040;42.706;23.372;2023-01-20T06:56:46;146094.38;;;7.78;100.00
6938;BME280;40040;42.706;23.372;2023-01-20T06:59:15;146094.38;;;7.78;100.00
6938;BME280;40040;42.706;23.372;2023-01-20T07:01:41;146082.06;;;7.73;100.00
6938;BME280;40040;42.706;23.372;2023-01-20T07:04:09;146050.09;;;7.60;100.00
6938;BME280;40040;42.706;23.372;2023-01-20T07:06:39;146099.31;;;7.80;100.00
6938;BME280;40040;42.706;23.372;2023-01-20T07:09:08;146096.84;;;7.79;100.00
6938;BME280;40040;42.706;23.372;2023-01-20T07:11:36;146089.44;;;7.76;100.00
6938;BME280;40040;42.706;23.372;2023-01-20T07:14:03;146096.84;;;7.79;100.00
6938;BME280;40040;42.706;23.372;2023-01-20T07:16:32;146106.69;;;7.83;100.00
6938;BME280;40040;42.706;23.372;2023-01-20T07:18:59;146110.41;;;7.84;100.00
6938;BME280;40040;42.706;23.372;2023-01-20T07:21:26;146111.59;;;7.85;100.00
6938;BME280;40040;42.706;23.372;2023-01-20T07:23:53;146037.78;;;7.55;100.00
6938;BME280;40040;42.706;23.372;2023-01-20T07:26:21;146114.09;;;7.86;100.00
6938;BME280;40040;42.706;23.372;2023-01-20T07:28:48;146116.53;;;7.87;100.00
6938;BME280;40040;42.706;23.372;2023-01-20T07:31:18;146141.16;;;7.97;100.00
6938;BME280;40040;42.706;23.372;2023-01-20T07:33:46;146057.47;;;7.63;100.00
6938;BME280;40040;42.706;23.372;2023-01-20T07:36:14;146160.88;;;8.05;100.00
6938;BME280;40040;42.706;23.372;2023-01-20T07:38:41;146157.19;;;8.04;100.00
6938;BME280;40040;42.706;23.372;2023-01-20T07:41:10;146163.31;;;8.06;100.00
6938;BME280;40040;42.706;23.372;2023-01-20T07:43:40;146184.25;;;8.15;100.00
6938;BME280;40040;42.706;23.372;2023-01-20T07:46:07;146152.25;;;8.02;100.00
6938;BME280;40040;42.706;23.372;2023-01-20T07:48:34;146163.31;;;8.06;100.00
6938;BME280;40040;42.706;23.372;2023-01-20T07:51:04;146155.94;;;8.03;100.00
6938;BME280;40040;42.706;23.372;2023-01-20T07:53:34;146178.13;;;8.12;100.00
6938;BME280;40040;42.706;23.372;2023-01-20T07:56:02;146217.53;;;8.28;100.00
6938;BME280;40040;42.706;23.372;2023-01-20T07:58:29;146224.97;;;8.31;100.00
6938;BME280;40040;42.706;23.372;2023-01-20T08:00:56;146197.81;;;8.20;100.00
6938;BME280;40040;42.706;23.372;2023-01-20T08:03:23;146216.34;;;8.28;100.00
6938;BME280;40040;42.706;23.372;2023-01-20T08:05:51;146216.34;;;8.28;100.00
6938;BME280;40040;42.706;23.372;2023-01-20T08:08:19;146185.50;;;8.15;100.00
6938;BME280;40040;42.706;23.372;2023-01-20T08:10:52;146159.63;;;8.05;100.00
6938;BME280;40040;42.706;23.372;2023-01-20T08:13:19;146146.06;;;7.99;100.00
6938;BME280;40040;42.706;23.372;2023-01-20T08:15:45;146128.84;;;7.92;100.00
6938;BME280;40040;42.706;23.372;2023-01-20T08:18:12;146091.94;;;7.77;100.00
6938;BME280;40040;42.706;23.372;2023-01-20T08:20:39;146111.59;;;7.85;100.00
6938;BME280;40040;42.706;23.372;2023-01-20T08:23:06;146109.16;;;7.84;100.00
6938;BME280;40040;42.706;23.372;2023-01-20T08:25:34;146109.16;;;7.84;100.00
6938;BME280;40040;42.706;23.372;2023-01-20T08:28:01;146114.09;;;7.86;100.00
6938;BME280;40040;42.706;23.372;2023-01-20T08:30:28;146136.22;;;7.95;100.00
6938;BME280;40040;42.706;23.372;2023-01-20T08:32:54;146146.06;;;7.99;100.00
6938;BME280;40040;42.706;23.372;2023-01-20T08:35:21;146154.69;;;8.02;100.00
6938;BME280;40040;42.706;23.372;2023-01-20T08:37:48;146168.25;;;8.08;100.00
6938;BME280;40040;42.706;23.372;2023-01-20T08:40:15;146179.31;;;8.13;100.00
6938;BME280;40040;42.706;23.372;2023-01-20T08:42:43;146195.34;;;8.19;100.00
6938;BME280;40040;42.706;23.372;2023-01-20T08:45:10;146207.72;;;8.24;100.00
6938;BME280;40040;42.706;23.372;2023-01-20T08:47:39;146207.72;;;8.24;100.00
6938;BME280;40040;42.706;23.372;2023-01-20T08:50:10;146224.97;;;8.31;100.00
6938;BME280;40040;42.706;23.372;2023-01-20T08:52:37;146220.03;;;8.29;100.00
6938;BME280;40040;42.706;23.372;2023-01-20T08:55:05;146217.53;;;8.28;100.00
6938;BME280;40040;42.706;23.372;2023-01-20T08:57:32;146203.97;;;8.23;100.00
6938;BME280;40040;42.706;23.372;2023-01-20T09:00:00;146218.78;;;8.29;100.00
6938;BME280;40040;42.706;23.372;2023-01-20T09:02:27;146224.97;;;8.31;100.00
6938;BME280;40040;42.706;23.372;2023-01-20T09:04:54;146236.03;;;8.36;100.00
6938;BME280;40040;42.706;23.372;2023-01-20T09:07:20;146231.09;;;8.34;100.00
6938;BME280;40040;42.706;23.372;2023-01-20T09:09:47;146242.19;;;8.38;100.00
6938;BME280;40040;42.706;23.372;2023-01-20T09:12:14;146234.78;;;8.35;100.00
6938;BME280;40040;42.706;23.372;2023-01-20T09:14:41;146237.25;;;8.36;100.00
6938;BME280;40040;42.706;23.372;2023-01-20T09:17:09;146240.97;;;8.38;100.00
6938;BME280;40040;42.706;23.372;2023-01-20T09:19:36;146242.19;;;8.38;100.00
6938;BME280;40040;42.706;23.372;2023-01-20T09:22:03;146249.56;;;8.41;100.00
6938;BME280;40040;42.706;23.372;2023-01-20T09:24:30;146256.94;;;8.44;100.00
6938;BME280;40040;42.706;23.372;2023-01-20T09:26:57;146242.19;;;8.38;100.00
6938;BME280;40040;42.706;23.372;2023-01-20T09:29:24;146259.44;;;8.45;100.00
6938;BME280;40040;42.706;23.372;2023-01-20T09:31:53;146274.19;;;8.51;100.00
6938;BME280;40040;42.706;23.372;2023-01-20T09:34:25;146277.88;;;8.53;100.00
6938;BME280;40040;42.706;23.372;2023-01-20T09:36:53;146270.50;;;8.50;100.00
6938;BME280;40040;42.706;23.372;2023-01-20T09:39:21;146271.75;;;8.50;100.00
6938;BME280;40040;42.706;23.372;2023-01-20T09:42:21;146293.94;;;8.59;100.00
6938;BME280;40040;42.706;23.372;2023-01-20T09:45:14;146303.75;;;8.63;100.00
6938;BME280;40040;42.706;23.372;2023-01-20T09:47:49;146282.81;;;8.55;100.00
6938;BME280;40040;42.706;23.372;2023-01-20T09:50:23;146280.38;;;8.54;100.00
6938;BME280;40040;42.706;23.372;2023-01-20T09:53:27;146291.44;;;8.58;100.00
6938;BME280;40040;42.706;23.372;2023-01-20T09:55:58;146309.94;;;8.66;100.00
6938;BME280;40040;42.706;23.372;2023-01-20T09:58:31;146323.50;;;8.71;100.00
6938;BME280;40040;42.706;23.372;2023-01-20T10:01:07;146318.56;;;8.69;100.00
6938;BME280;40040;42.706;23.372;2023-01-20T10:03:41;146354.25;;;8.84;100.00
6938;BME280;40040;42.706;23.372;2023-01-20T10:06:16;146380.13;;;8.94;100.00
6938;BME280;40040;42.706;23.372;2023-01-20T10:08:49;146390.00;;;8.98;100.00
6938;BME280;40040;42.706;23.372;2023-01-20T10:11:19;146399.88;;;9.02;100.00
6938;BME280;40040;42.706;23.372;2023-01-20T10:13:50;146429.44;;;9.15;100.00
6938;BME280;40040;42.706;23.372;2023-01-20T10:16:27;146467.66;;;9.30;100.00
6938;BME280;40040;42.706;23.372;2023-01-20T10:18:59;146579.84;;;9.76;100.00
6938;BME280;40040;42.706;23.372;2023-01-20T10:21:33;146697.00;;;10.23;100.00
6938;BME280;40040;42.706;23.372;2023-01-20T10:24:06;146783.38;;;10.59;100.00
6938;BME280;40040;42.706;23.372;2023-01-20T10:26:42;146787.06;;;10.60;100.00
6938;BME280;40040;42.706;23.372;2023-01-20T10:29:12;146784.63;;;10.59;100.00
6938;BME280;40040;42.706;23.372;2023-01-20T10:31:50;146785.84;;;10.60;100.00
6938;BME280;40040;42.706;23.372;2023-01-20T10:34:20;146809.28;;;10.69;100.00
6938;BME280;40040;42.706;23.372;2023-01-20T10:36:54;146789.56;;;10.61;100.00
6938;BME280;40040;42.706;23.372;2023-01-20T10:39:28;146755.00;;;10.47;100.00
6938;BME280;40040;42.706;23.372;2023-01-20T10:42:02;146700.75;;;10.25;100.00
6938;BME280;40040;42.706;23.372;2023-01-20T10:44:32;146620.50;;;9.92;100.00
6938;BME280;40040;42.706;23.372;2023-01-20T10:47:18;146673.59;;;10.14;100.00
6938;BME280;40040;42.706;23.372;2023-01-20T10:50:14;146643.97;;;10.02;100.00
6938;BME280;40040;42.706;23.372;2023-01-20T10:52:56;146584.78;;;9.78;100.00
6938;BME280;40040;42.706;23.372;2023-01-20T10:55:37;146605.72;;;9.86;100.00
6938;BME280;40040;42.706;23.372;2023-01-20T10:58:15;146604.47;;;9.86;100.00
6938;BME280;40040;42.706;23.372;2023-01-20T11:00:43;146609.44;;;9.88;100.00
6938;BME280;40040;42.706;23.372;2023-01-20T11:03:13;146621.75;;;9.93;100.00
6938;BME280;40040;42.706;23.372;2023-01-20T11:05:41;146590.91;;;9.80;100.00
6938;BME280;40040;42.706;23.372;2023-01-20T11:08:15;146632.84;;;9.97;100.00
6938;BME280;40040;42.706;23.372;2023-01-20T11:10:43;146629.13;;;9.96;100.00
6938;BME280;40040;42.706;23.372;2023-01-20T11:13:11;146578.59;;;9.75;100.00
6938;BME280;40040;42.706;23.372;2023-01-20T11:15:40;146645.16;;;10.02;100.00
6938;BME280;40040;42.706;23.372;2023-01-20T11:18:20;146653.78;;;10.06;100.00
6938;BME280;40040;42.706;23.372;2023-01-20T11:20:50;146639.00;;;10.00;100.00
6938;BME280;40040;42.706;23.372;2023-01-20T11:23:21;146639.00;;;10.00;100.00
6938;BME280;40040;42.706;23.372;2023-01-20T11:25:55;146660.03;;;10.08;100.00
6938;BME280;40040;42.706;23.372;2023-01-20T11:28:23;146676.03;;;10.15;100.00
6938;BME280;40040;42.706;23.372;2023-01-20T11:30:52;146704.44;;;10.27;100.00
6938;BME280;40040;42.706;23.372;2023-01-20T11:33:21;146725.41;;;10.35;100.00
6938;BME280;40040;42.706;23.372;2023-01-20T11:36:00;146717.97;;;10.32;100.00
6938;BME280;40040;42.706;23.372;2023-01-20T11:38:30;146730.34;;;10.37;100.00
6938;BME280;40040;42.706;23.372;2023-01-20T11:40:57;146736.50;;;10.40;100.00
6938;BME280;40040;42.706;23.372;2023-01-20T11:43:28;146727.84;;;10.36;100.00
6938;BME280;40040;42.706;23.372;2023-01-20T11:46:19;146720.47;;;10.33;100.00
6938;BME280;40040;42.706;23.372;2023-01-20T11:48:47;146693.31;;;10.22;100.00
6938;BME280;40040;42.706;23.372;2023-01-20T11:51:19;146625.44;;;9.94;100.00
6938;BME280;40040;42.706;23.372;2023-01-20T11:53:47;146574.91;;;9.74;100.00
6938;BME280;40040;42.706;23.372;2023-01-20T11:56:16;146498.47;;;9.43;100.00
6938;BME280;40040;42.706;23.372;2023-01-20T11:58:50;146454.09;;;9.25;100.00
6938;BME280;40040;42.706;23.372;2023-01-20T12:01:23;146394.94;;;9.00;100.00
6938;BME280;40040;42.706;23.372;2023-01-20T12:04:08;146377.69;;;8.93;100.00
6938;BME280;40040;42.706;23.372;2023-01-20T12:06:42;146370.31;;;8.90;100.00
6938;BME280;40040;42.706;23.372;2023-01-20T12:09:13;146345.63;;;8.80;100.00
6938;BME280;40040;42.706;23.372;2023-01-20T12:11:51;146277.88;;;8.53;100.00
6938;BME280;40040;42.706;23.372;2023-01-20T12:14:24;146249.56;;;8.41;100.00
6938;BME280;40040;42.706;23.372;2023-01-20T12:16:59;146187.94;;;8.16;100.00
6938;BME280;40040;42.706;23.372;2023-01-20T12:19:36;146243.41;;;8.39;100.00
6938;BME280;40040;42.706;23.372;2023-01-20T12:22:11;146138.69;;;7.96;100.00
6938;BME280;40040;42.706;23.372;2023-01-20T12:24:47;146082.06;;;7.73;100.00
6938;BME280;40040;42.706;23.372;2023-01-20T12:27:38;146046.34;;;7.58;100.00
6938;BME280;40040;42.706;23.372;2023-01-20T12:30:15;146015.63;;;7.46;100.00
6938;BME280;40040;42.706;23.372;2023-01-20T12:32:45;145961.44;;;7.24;100.00
6938;BME280;40040;42.706;23.372;2023-01-20T12:35:13;145960.25;;;7.23;100.00
6938;BME280;40040;42.706;23.372;2023-01-20T12:37:43;145957.75;;;7.22;100.00
6938;BME280;40040;42.706;23.372;2023-01-20T12:40:21;145936.84;;;7.14;100.00
6938;BME280;40040;42.706;23.372;2023-01-20T12:46:03;145764.63;;;6.43;100.00
6938;BME280;40040;42.706;23.372;2023-01-20T12:48:44;145714.22;;;6.23;100.00
6938;BME280;40040;42.706;23.372;2023-01-20T12:51:28;145646.63;;;5.95;100.00
6938;BME280;40040;42.706;23.372;2023-01-20T12:54:22;145663.84;;;6.02;100.00
6938;BME280;40040;42.706;23.372;2023-01-20T12:57:02;145615.91;;;5.83;100.00
6938;BME280;40040;42.706;23.372;2023-01-20T12:59:39;145636.78;;;5.91;100.00
6938;BME280;40040;42.706;23.372;2023-01-20T13:02:40;145618.38;;;5.84;100.00
6938;BME280;40040;42.706;23.372;2023-01-20T13:05:22;145597.44;;;5.75;100.00
6938;BME280;40040;42.706;23.372;2023-01-20T13:08:03;145570.41;;;5.64;100.00
6938;BME280;40040;42.706;23.372;2023-01-20T13:10:42;145531.06;;;5.48;100.00
6938;BME280;40040;42.706;23.372;2023-01-20T13:13:22;145569.16;;;5.63;100.00
6938;BME280;40040;42.706;23.372;2023-01-20T13:15:57;145545.84;;;5.54;100.00